createdAt,value
2023-03-06T00:04:23.310Z,4.21
2023-03-06T00:14:27.094Z,4.20
2023-03-06T00:24:29.742Z,4.10
2023-03-06T00:34:33.533Z,4.12
2023-03-06T00:44:37.068Z,4.23
2023-03-06T00:54:41.188Z,4.19
2023-03-06T01:04:43.750Z,4.08
2023-03-06T01:14:47.592Z,4.21
2023-03-06T01:24:50.181Z,4.27
2023-03-06T01:34:54.045Z,4.28
2023-03-06T01:45:00.119Z,4.26
2023-03-06T01:55:06.498Z,4.23
2023-03-06T02:05:09.249Z,4.19
2023-03-06T02:15:14.325Z,4.18
2023-03-06T02:25:27.538Z,4.19
2023-03-06T02:35:31.244Z,4.15
2023-03-06T02:45:36.919Z,4.12
2023-03-06T02:55:39.385Z,4.07
2023-03-06T03:05:43.344Z,4.07
2023-03-06T03:15:46.087Z,4.00
2023-03-06T03:25:49.966Z,3.97
2023-03-06T03:35:57.302Z,4.00
2023-03-06T03:46:01.103Z,3.99
2023-03-06T03:56:03.761Z,4.01
2023-03-06T04:06:08.235Z,4.02
2023-03-06T04:16:10.903Z,3.92
2023-03-06T04:26:14.815Z,3.98
2023-03-06T04:36:21.801Z,3.95
2023-03-06T04:46:25.705Z,3.97
2023-03-06T04:56:28.219Z,3.97
2023-03-06T05:06:32.061Z,3.95
2023-03-06T05:16:34.551Z,3.94
2023-03-06T05:26:38.347Z,3.90
2023-03-06T05:36:40.878Z,3.90
2023-03-06T05:46:44.682Z,3.83
2023-03-06T05:56:47.207Z,3.91
2023-03-06T06:06:54.566Z,3.86
2023-03-06T06:16:57.145Z,3.85
2023-03-06T06:27:03.763Z,3.75
2023-03-06T06:37:06.640Z,3.85
2023-03-06T06:47:26.358Z,3.66
2023-03-06T06:57:28.995Z,3.78
2023-03-06T07:07:34.452Z,3.82
2023-03-06T07:17:36.924Z,3.93
2023-03-06T07:27:40.818Z,3.88
2023-03-06T07:37:43.358Z,3.92
2023-03-06T07:47:47.322Z,4.06
2023-03-06T07:57:50.570Z,3.93
2023-03-06T08:07:54.374Z,4.13
2023-03-06T08:17:56.956Z,4.15
2023-03-06T08:28:01.069Z,4.43
2023-03-06T08:38:03.547Z,4.58
2023-03-06T08:48:09.382Z,4.59
2023-03-06T08:58:11.913Z,4.24
2023-03-06T09:08:15.821Z,4.18
2023-03-06T09:18:18.372Z,4.22
2023-03-06T09:28:22.553Z,4.35
2023-03-06T09:38:26.147Z,4.48
2023-03-06T09:48:37.870Z,4.64
2023-03-06T09:58:43.175Z,4.74
2023-03-06T10:08:50.130Z,4.75
2023-03-06T10:18:52.875Z,5.59
2023-03-06T10:29:04.000Z,5.51
2023-03-06T10:39:11.592Z,5.37
2023-03-06T10:49:25.921Z,5.14
2023-03-06T10:59:29.361Z,5.30
2023-03-06T11:09:33.413Z,5.31
2023-03-06T11:19:36.012Z,5.33
2023-03-06T11:29:43.073Z,5.46
2023-03-06T11:39:49.368Z,5.62
2023-03-06T11:49:56.704Z,5.43
2023-03-06T12:00:12.499Z,5.55
2023-03-06T12:10:19.308Z,5.91
2023-03-06T12:20:28.632Z,6.12
2023-03-06T12:30:59.087Z,5.98
2023-03-06T12:41:07.783Z,6.12
2023-03-06T12:51:14.059Z,6.29
2023-03-06T13:01:23.964Z,6.28
2023-03-06T13:11:40.819Z,6.30
2023-03-06T13:22:10.202Z,6.17
2023-03-06T13:32:18.384Z,6.33
2023-03-06T13:42:27.888Z,6.02
2023-03-06T13:52:36.715Z,5.93
2023-03-06T14:02:54.616Z,6.14
2023-03-06T14:13:01.764Z,6.00
2023-03-06T14:23:17.424Z,5.90
2023-03-06T14:33:28.282Z,6.01
2023-03-06T14:43:31.693Z,6.05
2023-03-06T14:53:35.611Z,5.77
2023-03-06T15:03:42.950Z,5.80
2023-03-06T15:14:00.687Z,5.72
2023-03-06T15:24:03.187Z,5.58
2023-03-06T15:34:16.956Z,5.29
2023-03-06T15:44:19.525Z,5.10
2023-03-06T15:54:23.328Z,5.12
2023-03-06T16:04:27.565Z,4.98
2023-03-06T16:14:31.488Z,5.06
2023-03-06T16:24:33.934Z,4.84
2023-03-06T16:34:37.709Z,4.86
2023-03-06T16:44:40.137Z,4.65
2023-03-06T16:54:44.779Z,4.72
2023-03-06T17:04:50.689Z,4.54
2023-03-06T17:14:54.533Z,4.64
2023-03-06T17:24:56.984Z,4.55
2023-03-06T17:35:00.813Z,4.55
2023-03-06T17:45:03.364Z,4.56
2023-03-06T17:55:08.103Z,4.53
2023-03-06T18:05:14.686Z,4.47
2023-03-06T18:15:18.719Z,4.43
2023-03-06T18:25:21.190Z,4.45
2023-03-06T18:35:28.019Z,4.50
2023-03-06T18:45:30.634Z,4.57
2023-03-06T18:55:51.099Z,4.45
2023-03-06T19:05:53.702Z,4.55
2023-03-06T19:15:57.697Z,4.60
2023-03-06T19:26:00.391Z,4.52
2023-03-06T19:36:04.315Z,4.45
2023-03-06T19:46:06.902Z,4.24
2023-03-06T19:56:12.882Z,4.12
2023-03-06T20:06:16.479Z,4.06
2023-03-06T20:16:20.696Z,4.10
2023-03-06T20:26:23.524Z,4.21
2023-03-06T20:36:28.945Z,4.19
2023-03-06T20:46:32.300Z,4.17
2023-03-06T20:56:36.929Z,4.05
2023-03-06T21:06:39.443Z,4.06
2023-03-06T21:16:43.786Z,4.15
2023-03-06T21:26:46.339Z,4.20
2023-03-06T21:36:51.060Z,3.97
2023-03-06T21:46:53.596Z,4.06
2023-03-06T21:56:57.599Z,3.80
2023-03-06T22:07:00.103Z,3.94
2023-03-06T22:17:03.918Z,3.93
2023-03-06T22:27:06.427Z,3.97
2023-03-06T22:37:10.219Z,3.91
2023-03-06T22:47:12.660Z,3.81
2023-03-06T22:57:16.460Z,3.90
2023-03-06T23:07:19.205Z,3.96
2023-03-06T23:17:23.105Z,4.03
2023-03-06T23:27:25.511Z,4.06
2023-03-06T23:37:29.626Z,3.86
2023-03-06T23:47:32.448Z,3.88
2023-03-06T23:57:36.214Z,3.81
